Página principal
METAR-TAF:

METAR-TAF

Aeroportos :

Salak

Maroua, Camarões

latitude: 10-27N, longitude: 014-15E, altura: 423 m

Observação actual do tempo

O boletim foi feito há 11 horas e 22 minutos, às 09:00 UTC
Temperatura
Pressão 1014 hPa
Visibilidade 10 km ou mais
sem nuvens abaixo de 1500 metros e sem cumulonimbus

METAR: FKKL 270900Z /////KT CAVOK ///// Q1014

Hora: 21:22 (20:22 UTC)

Previsão

O boletim foi feito há 15 horas e 22 minutos, às 05:00 UTC
Previsão válida de 27 às 06 UTC a 27 às 18 UTC
Vento 8 kt de es-nordeste
Visibilidade: 8000 m
Temporariamente
de 27 às 08 UTC a 27 às 14 UTC
Visibilidade: 2500 m
poeira extensa,

TAF: FKKL 270500Z 2706/2718 06008KT 8000 NSC TEMPO 2708/2714 2500 DU

Observações e previsões do tempo de mais de 4000 aeroportos (mensagens METAR e TAF).

As estações disponíveis são os pontos amarelos e vermelhos sobre o mapa.

Mova o rato sobre o mapa para ver o nome da estação.

Depois clique no ponto para visualizar as observações e previsões meteorológicas.

Para alterar o mapa : clique nos botões verdes com uma cruz preta para aumentar o zoom; no botão verde com uma pitada de zoom; ou nas setas verdes para mapas adjacentes.


METAR-TAF: